Time;durP1;ratioP1;P1;durP2;ratioP2;P2;SDS_P1;SDS_P2;PMS_P1;PMS_P2;Temp;Humidity;BMP_temperature;BMP_pressure;BME280_temperature;BME280_humidity;BME280_pressure;Samples;Min_cycle;Max_cycle;Signal;HPM_P1;HPM_P2
2021/05/02 00:01:10;;;;;;;;;;;19.20;55.20;;;;;;5033071;28;19913;-70
2021/05/02 00:03:36;;;;;;;;;;;19.40;54.90;;;;;;5015606;28;19960;-70
2021/05/02 00:06:05;;;;;;;;;;;19.70;51.70;;;;;;5033078;28;19917;-70
2021/05/02 00:08:32;;;;;;;;;;;19.70;52.10;;;;;;5029882;28;19909;-71
2021/05/02 00:10:58;;;;;;;;;;;19.70;52.10;;;;;;5025540;28;19922;-71
2021/05/02 00:13:24;;;;;;;;;;;19.50;52.60;;;;;;5030675;28;19914;-71
2021/05/02 00:15:50;;;;;;;;;;;19.60;52.10;;;;;;5029914;28;20283;-71
2021/05/02 00:18:17;;;;;;;;;;;19.50;52.60;;;;;;5033127;28;19913;-71
2021/05/02 00:20:43;;;;;;;;;;;19.80;51.30;;;;;;5030439;28;19913;-70
2021/05/02 00:23:09;;;;;;;;;;;19.60;50.60;;;;;;5032827;28;20394;-71
2021/05/02 00:25:36;;;;;;;;;;;19.50;51.40;;;;;;5029693;28;19960;-71
2021/05/02 00:28:08;;;;;;;;;;;19.40;52.70;;;;;;5027683;28;19999;-71
2021/05/02 00:30:34;;;;;;;;;;;19.60;51.80;;;;;;5030225;28;19945;-71
2021/05/02 00:33:01;;;;;;;;;;;19.40;52.40;;;;;;5034362;28;19920;-71
2021/05/02 00:35:27;;;;;;;;;;;19.50;50.70;;;;;;5035698;28;19951;-71
2021/05/02 00:37:54;;;;;;;;;;;19.30;51.60;;;;;;5036212;28;19910;-71
2021/05/02 00:40:25;;;;;;;;;;;19.30;51.70;;;;;;5047394;28;20009;-71
2021/05/02 00:42:58;;;;;;;;;;;19.20;52.00;;;;;;5051635;28;19909;-70
2021/05/02 00:45:42;;;;;;;;;;;19.10;51.50;;;;;;5037459;28;19917;-70
2021/05/02 00:48:29;;;;;;;;;;;19.00;51.50;;;;;;5045286;28;19994;-72
2021/05/02 00:51:01;;;;;;;;;;;18.80;51.90;;;;;;5041788;28;19970;-72
2021/05/02 00:53:31;;;;;;;;;;;18.70;52.10;;;;;;5023818;28;19923;-72
2021/05/02 00:55:58;;;;;;;;;;;18.60;52.00;;;;;;5039925;28;19913;-71
2021/05/02 00:58:32;;;;;;;;;;;18.40;52.00;;;;;;5038440;28;19976;-74
2021/05/02 01:00:59;;;;;;;;;;;18.20;53.30;;;;;;5038070;28;19917;-69
2021/05/02 01:03:30;;;;;;;;;;;18.00;54.40;;;;;;5057090;28;20342;-70
2021/05/02 01:05:58;;;;;;;;;;;17.90;54.30;;;;;;5031994;28;19919;-70
2021/05/02 01:08:27;;;;;;;;;;;17.80;54.40;;;;;;5037343;28;19913;-71
2021/05/02 01:10:55;;;;;;;;;;;17.90;54.50;;;;;;5036788;28;20000;-69
2021/05/02 01:13:21;;;;;;;;;;;17.90;54.20;;;;;;5042830;28;19920;-70
2021/05/02 01:15:49;;;;;;;;;;;18.10;53.60;;;;;;5040246;28;19925;-71
2021/05/02 01:18:17;;;;;;;;;;;18.10;53.50;;;;;;5036323;28;19967;-71
2021/05/02 01:20:43;;;;;;;;;;;18.10;53.40;;;;;;5036098;28;19917;-71
2021/05/02 01:23:12;;;;;;;;;;;18.00;53.50;;;;;;5034921;28;20024;-70
2021/05/02 01:25:38;;;;;;;;;;;17.90;53.70;;;;;;5032780;28;19921;-71
2021/05/02 01:28:04;;;;;;;;;;;17.80;54.10;;;;;;5036624;28;20308;-69
2021/05/02 01:30:30;;;;;;;;;;;17.90;53.50;;;;;;5034349;28;19932;-70
2021/05/02 01:32:56;;;;;;;;;;;17.80;53.70;;;;;;5034723;28;19913;-70
2021/05/02 01:35:23;;;;;;;;;;;17.80;53.90;;;;;;5032550;28;19913;-71
2021/05/02 01:37:50;;;;;;;;;;;17.60;53.80;;;;;;5036395;28;19917;-70
2021/05/02 01:40:17;;;;;;;;;;;17.50;54.30;;;;;;5016328;28;20267;-70
2021/05/02 01:42:43;;;;;;;;;;;17.20;54.80;;;;;;5032326;28;19935;-70
2021/05/02 01:45:09;;;;;;;;;;;17.30;54.90;;;;;;5030001;28;20228;-71
2021/05/02 01:47:37;;;;;;;;;;;17.40;54.80;;;;;;5024227;28;19948;-71
2021/05/02 01:50:05;;;;;;;;;;;17.40;54.80;;;;;;5034632;28;20274;-71
2021/05/02 01:52:34;;;;;;;;;;;17.50;54.40;;;;;;5048429;28;19913;-71
2021/05/02 01:55:01;;;;;;;;;;;17.80;53.40;;;;;;5033775;28;19920;-71
2021/05/02 01:57:29;;;;;;;;;;;17.60;54.30;;;;;;5027429;28;19928;-71
2021/05/02 01:59:57;;;;;;;;;;;17.40;54.20;;;;;;5033910;28;19916;-71
2021/05/02 02:02:25;;;;;;;;;;;17.20;54.80;;;;;;5032621;28;19921;-71
2021/05/02 02:04:52;;;;;;;;;;;17.30;54.90;;;;;;5031988;28;20263;-71
2021/05/02 02:07:19;;;;;;;;;;;17.30;54.80;;;;;;5028655;28;19979;-71
2021/05/02 02:09:45;;;;;;;;;;;17.20;54.50;;;;;;5033313;28;20367;-74
2021/05/02 02:12:11;;;;;;;;;;;17.30;54.50;;;;;;5032149;28;19995;-75
2021/05/02 02:14:38;;;;;;;;;;;17.30;54.20;;;;;;5033878;28;19928;-73
2021/05/02 02:17:05;;;;;;;;;;;17.20;54.10;;;;;;5018191;28;20354;-73
2021/05/02 02:19:31;;;;;;;;;;;17.10;54.10;;;;;;5036589;28;19995;-73
2021/05/02 02:21:58;;;;;;;;;;;17.00;54.40;;;;;;5035831;28;19961;-73
2021/05/02 02:24:42;;;;;;;;;;;17.00;54.30;;;;;;5018628;28;19928;-75
2021/05/02 02:27:09;;;;;;;;;;;16.90;54.40;;;;;;5036214;28;20401;-74
2021/05/02 02:29:39;;;;;;;;;;;16.80;54.70;;;;;;5035444;28;19971;-74
2021/05/02 02:32:06;;;;;;;;;;;16.80;54.80;;;;;;5034523;28;19913;-73
2021/05/02 02:34:35;;;;;;;;;;;16.70;54.80;;;;;;5036075;28;19923;-75
2021/05/02 02:37:02;;;;;;;;;;;16.60;55.00;;;;;;5036221;28;19909;-75
2021/05/02 02:39:28;;;;;;;;;;;16.50;55.40;;;;;;5032955;28;19983;-74
2021/05/02 02:41:56;;;;;;;;;;;16.50;55.00;;;;;;5031932;28;19913;-71
2021/05/02 02:44:22;;;;;;;;;;;16.40;55.60;;;;;;5035212;28;19917;-70
2021/05/02 02:46:56;;;;;;;;;;;16.30;55.60;;;;;;5031748;28;19927;-72
2021/05/02 02:49:22;;;;;;;;;;;16.20;55.40;;;;;;5029271;28;19913;-73
2021/05/02 02:51:50;;;;;;;;;;;15.80;56.70;;;;;;5040214;28;19919;-72
2021/05/02 02:54:17;;;;;;;;;;;16.10;56.00;;;;;;5048411;28;19912;-71
2021/05/02 02:56:43;;;;;;;;;;;16.10;56.00;;;;;;5049160;28;19913;-72
2021/05/02 02:59:15;;;;;;;;;;;16.00;55.80;;;;;;5017569;28;19982;-72
2021/05/02 03:01:42;;;;;;;;;;;16.00;56.30;;;;;;5033840;28;19948;-72
2021/05/02 03:04:10;;;;;;;;;;;15.80;56.40;;;;;;5015292;28;19974;-72
2021/05/02 03:06:36;;;;;;;;;;;15.80;56.60;;;;;;5031233;28;20346;-71
2021/05/02 03:09:03;;;;;;;;;;;15.90;56.20;;;;;;5015313;28;19971;-72
2021/05/02 03:11:29;;;;;;;;;;;15.90;56.20;;;;;;5049458;28;19948;-71
2021/05/02 03:13:55;;;;;;;;;;;15.90;56.40;;;;;;5016945;28;19940;-72
2021/05/02 03:16:25;;;;;;;;;;;15.80;56.90;;;;;;5016913;28;20358;-71
2021/05/02 03:18:51;;;;;;;;;;;15.90;56.00;;;;;;5035208;28;19978;-71
2021/05/02 03:21:19;;;;;;;;;;;15.90;56.30;;;;;;5017710;28;19917;-72
2021/05/02 03:23:45;;;;;;;;;;;16.00;55.90;;;;;;5021531;28;19913;-71
2021/05/02 03:26:12;;;;;;;;;;;15.80;56.80;;;;;;5017360;28;20346;-71
2021/05/02 03:28:38;;;;;;;;;;;15.70;56.60;;;;;;5034853;28;19913;-71
2021/05/02 03:31:13;;;;;;;;;;;15.80;56.70;;;;;;5034779;28;20286;-71
2021/05/02 03:33:47;;;;;;;;;;;15.80;56.40;;;;;;5033874;28;19913;-70
2021/05/02 03:36:17;;;;;;;;;;;15.70;56.30;;;;;;5028839;28;19913;-71
2021/05/02 03:38:46;;;;;;;;;;;15.80;56.20;;;;;;5034120;28;19971;-71
2021/05/02 03:41:12;;;;;;;;;;;15.70;56.60;;;;;;5010685;28;19917;-71
2021/05/02 03:43:38;;;;;;;;;;;15.70;56.10;;;;;;5027548;28;19909;-70
2021/05/02 03:46:04;;;;;;;;;;;15.40;57.40;;;;;;5031055;28;19913;-70
2021/05/02 03:48:31;;;;;;;;;;;15.30;57.40;;;;;;5049311;28;19913;-70
2021/05/02 03:50:57;;;;;;;;;;;15.20;58.60;;;;;;5039778;28;19986;-70
2021/05/02 03:53:23;;;;;;;;;;;14.90;59.40;;;;;;5044828;28;20333;-70
2021/05/02 03:55:49;;;;;;;;;;;15.10;57.80;;;;;;5033759;28;20083;-70
2021/05/02 03:58:16;;;;;;;;;;;15.20;57.80;;;;;;5031038;28;19983;-70
2021/05/02 04:00:43;;;;;;;;;;;15.20;57.40;;;;;;5028363;28;20373;-71
2021/05/02 04:03:11;;;;;;;;;;;15.30;57.20;;;;;;5036945;28;19920;-71
2021/05/02 04:05:37;;;;;;;;;;;15.10;57.90;;;;;;5037974;28;20347;-71
2021/05/02 04:08:07;;;;;;;;;;;15.40;57.80;;;;;;5034192;28;19917;-71
2021/05/02 04:10:33;;;;;;;;;;;15.30;56.80;;;;;;5025427;28;19914;-70
2021/05/02 04:12:59;;;;;;;;;;;15.60;57.00;;;;;;5028156;28;19919;-71
2021/05/02 04:15:25;;;;;;;;;;;15.40;56.50;;;;;;5037610;28;20070;-70
2021/05/02 04:17:51;;;;;;;;;;;15.20;56.90;;;;;;5023753;28;20038;-70
2021/05/02 04:20:17;;;;;;;;;;;15.10;57.00;;;;;;5027926;28;19928;-70
2021/05/02 04:22:44;;;;;;;;;;;15.20;57.80;;;;;;5014529;28;19921;-71
2021/05/02 04:25:10;;;;;;;;;;;15.20;57.50;;;;;;5030546;28;19948;-71
2021/05/02 04:27:36;;;;;;;;;;;15.10;57.70;;;;;;5023184;28;19914;-71
2021/05/02 04:30:02;;;;;;;;;;;15.10;57.50;;;;;;5026216;28;20028;-71
2021/05/02 04:32:28;;;;;;;;;;;15.10;57.60;;;;;;5029939;28;19916;-70
2021/05/02 04:34:54;;;;;;;;;;;14.90;58.20;;;;;;5028789;28;19913;-70
2021/05/02 04:37:20;;;;;;;;;;;14.90;58.40;;;;;;5030708;28;20012;-70
2021/05/02 04:39:47;;;;;;;;;;;15.10;57.80;;;;;;5038133;28;19913;-70
2021/05/02 04:42:13;;;;;;;;;;;15.20;57.80;;;;;;5032772;28;20224;-70
2021/05/02 04:44:39;;;;;;;;;;;15.20;57.60;;;;;;5032856;28;19920;-70
2021/05/02 04:47:05;;;;;;;;;;;15.10;57.60;;;;;;5035558;28;20227;-71
2021/05/02 04:49:31;;;;;;;;;;;15.20;57.90;;;;;;5037940;28;19975;-70
2021/05/02 04:51:57;;;;;;;;;;;15.20;57.10;;;;;;5032412;28;19924;-70
2021/05/02 04:54:24;;;;;;;;;;;15.10;57.40;;;;;;5033917;28;20062;-70
2021/05/02 04:56:50;;;;;;;;;;;15.10;57.50;;;;;;5033523;28;19924;-70
2021/05/02 04:59:16;;;;;;;;;;;14.90;58.20;;;;;;5034086;28;20259;-70
2021/05/02 05:01:43;;;;;;;;;;;15.20;57.60;;;;;;5031314;28;20262;-71
2021/05/02 05:04:09;;;;;;;;;;;15.20;57.80;;;;;;5045192;28;20103;-71
2021/05/02 05:06:35;;;;;;;;;;;15.10;57.50;;;;;;5032878;28;20250;-71
2021/05/02 05:09:03;;;;;;;;;;;15.20;57.70;;;;;;5027337;28;19971;-71
2021/05/02 05:11:29;;;;;;;;;;;15.40;57.30;;;;;;5028261;28;20016;-71
2021/05/02 05:13:55;;;;;;;;;;;15.20;57.20;;;;;;5032060;28;19913;-71
2021/05/02 05:16:21;;;;;;;;;;;15.20;57.20;;;;;;5013954;28;19913;-71
2021/05/02 05:18:48;;;;;;;;;;;15.10;57.40;;;;;;5018894;28;19913;-71
2021/05/02 05:21:14;;;;;;;;;;;15.00;57.30;;;;;;5024828;28;20544;-71
2021/05/02 05:23:40;;;;;;;;;;;14.80;57.70;;;;;;5017593;28;20016;-71
2021/05/02 05:26:06;;;;;;;;;;;14.70;58.40;;;;;;5036290;28;19919;-71
2021/05/02 05:28:32;;;;;;;;;;;14.80;58.60;;;;;;5017839;28;19957;-72
2021/05/02 05:30:58;;;;;;;;;;;15.10;58.10;;;;;;5017825;28;19940;-71
2021/05/02 05:33:28;;;;;;;;;;;15.00;58.00;;;;;;5036176;28;19947;-71
2021/05/02 05:35:54;;;;;;;;;;;15.00;58.30;;;;;;5035581;28;19913;-71
2021/05/02 05:38:20;;;;;;;;;;;14.80;58.10;;;;;;5022255;28;19924;-71
2021/05/02 05:40:46;;;;;;;;;;;14.80;59.10;;;;;;5035385;28;19913;-70
2021/05/02 05:43:12;;;;;;;;;;;14.80;59.30;;;;;;5033785;28;19935;-71
2021/05/02 05:45:38;;;;;;;;;;;14.70;59.10;;;;;;5034839;28;20336;-71
2021/05/02 05:48:04;;;;;;;;;;;14.70;59.00;;;;;;5017622;28;20000;-70
2021/05/02 05:50:31;;;;;;;;;;;14.60;59.20;;;;;;5035091;28;20231;-71
2021/05/02 05:52:58;;;;;;;;;;;14.60;59.50;;;;;;5017531;28;19999;-71
2021/05/02 05:55:24;;;;;;;;;;;14.70;59.90;;;;;;5051554;28;19948;-71
2021/05/02 05:57:51;;;;;;;;;;;14.70;59.30;;;;;;5032288;28;19939;-71
2021/05/02 06:00:18;;;;;;;;;;;14.60;58.90;;;;;;5017891;28;19949;-71
2021/05/02 06:02:44;;;;;;;;;;;14.40;60.30;;;;;;5026887;28;19917;-70
2021/05/02 06:05:10;;;;;;;;;;;14.50;59.70;;;;;;5035820;28;20336;-71
2021/05/02 06:07:37;;;;;;;;;;;14.30;60.60;;;;;;5018195;28;19913;-70
2021/05/02 06:10:03;;;;;;;;;;;14.60;60.00;;;;;;5034536;28;19999;-71
2021/05/02 06:12:29;;;;;;;;;;;14.60;60.10;;;;;;5032916;28;19952;-71
2021/05/02 06:14:55;;;;;;;;;;;14.60;59.60;;;;;;5034525;28;19924;-70
2021/05/02 06:17:22;;;;;;;;;;;14.70;59.80;;;;;;5032109;28;19913;-70
2021/05/02 06:19:48;;;;;;;;;;;14.70;59.70;;;;;;5016023;28;19966;-71
2021/05/02 06:22:14;;;;;;;;;;;14.80;60.40;;;;;;5034301;28;19924;-71
2021/05/02 06:24:40;;;;;;;;;;;14.80;60.00;;;;;;5032001;28;19939;-70
2021/05/02 06:27:06;;;;;;;;;;;14.80;60.00;;;;;;5035543;28;20270;-70
2021/05/02 06:29:34;;;;;;;;;;;14.80;60.20;;;;;;5026579;28;20251;-70
2021/05/02 06:32:00;;;;;;;;;;;14.80;60.10;;;;;;5032417;28;20255;-70
2021/05/02 06:34:26;;;;;;;;;;;14.70;60.40;;;;;;5034075;28;19913;-70
2021/05/02 06:36:58;;;;;;;;;;;14.60;60.00;;;;;;5034643;28;19913;-70
2021/05/02 06:39:25;;;;;;;;;;;14.60;60.70;;;;;;5027442;28;19940;-70
2021/05/02 06:41:51;;;;;;;;;;;14.60;60.90;;;;;;5029879;28;19944;-70
2021/05/02 06:44:17;;;;;;;;;;;14.50;61.00;;;;;;5033612;28;20236;-70
2021/05/02 06:46:43;;;;;;;;;;;14.60;60.90;;;;;;5037180;28;19944;-70
2021/05/02 06:49:09;;;;;;;;;;;14.60;60.40;;;;;;5035178;28;19971;-69
2021/05/02 06:51:35;;;;;;;;;;;14.60;60.20;;;;;;5031698;28;19917;-70
2021/05/02 06:54:04;;;;;;;;;;;14.60;60.40;;;;;;5034097;28;19913;-70
2021/05/02 06:56:30;;;;;;;;;;;14.70;60.10;;;;;;5034153;28;19914;-70
2021/05/02 06:58:56;;;;;;;;;;;14.60;60.00;;;;;;5034184;28;19916;-71
2021/05/02 07:01:23;;;;;;;;;;;14.70;59.90;;;;;;5033166;28;19913;-70
2021/05/02 07:03:49;;;;;;;;;;;14.50;59.90;;;;;;5033006;28;19924;-70
2021/05/02 07:06:16;;;;;;;;;;;14.70;60.50;;;;;;5034648;28;19986;-70
2021/05/02 07:08:42;;;;;;;;;;;14.60;59.80;;;;;;5031305;28;19913;-70
2021/05/02 07:11:08;;;;;;;;;;;14.50;60.00;;;;;;5035293;28;20334;-70
2021/05/02 07:13:34;;;;;;;;;;;14.50;60.20;;;;;;5033266;28;20020;-71
2021/05/02 07:16:00;;;;;;;;;;;14.60;59.70;;;;;;5033987;28;19944;-71
2021/05/02 07:18:34;;;;;;;;;;;14.70;59.70;;;;;;5016656;28;19913;-70
2021/05/02 07:21:00;;;;;;;;;;;14.60;59.70;;;;;;5033467;28;19916;-71
2021/05/02 07:23:26;;;;;;;;;;;14.70;59.70;;;;;;5033999;28;19941;-71
2021/05/02 07:25:53;;;;;;;;;;;14.70;59.50;;;;;;5034500;28;19919;-71
2021/05/02 07:28:19;;;;;;;;;;;14.70;59.70;;;;;;5034069;28;19913;-71
2021/05/02 07:30:45;;;;;;;;;;;14.70;59.30;;;;;;5034291;28;20351;-71
2021/05/02 07:33:11;;;;;;;;;;;14.70;59.50;;;;;;5033303;28;19913;-71
2021/05/02 07:35:37;;;;;;;;;;;14.80;59.40;;;;;;5033830;28;20310;-71
2021/05/02 07:38:03;;;;;;;;;;;14.70;59.20;;;;;;5015445;28;19925;-71
2021/05/02 07:40:29;;;;;;;;;;;14.80;59.30;;;;;;5030306;28;19917;-71
2021/05/02 07:42:55;;;;;;;;;;;14.60;59.30;;;;;;5033634;28;19913;-71
2021/05/02 07:45:21;;;;;;;;;;;14.50;59.50;;;;;;5034698;28;19917;-71
2021/05/02 07:47:47;;;;;;;;;;;14.50;60.00;;;;;;5032615;28;19959;-70
2021/05/02 07:50:14;;;;;;;;;;;14.50;59.70;;;;;;5033285;28;20298;-71
2021/05/02 07:52:41;;;;;;;;;;;14.50;60.30;;;;;;5032555;28;19925;-71
2021/05/02 07:55:07;;;;;;;;;;;14.60;59.20;;;;;;5034307;28;20350;-70
2021/05/02 07:57:33;;;;;;;;;;;14.70;59.10;;;;;;5033723;28;19920;-70
2021/05/02 08:00:00;;;;;;;;;;;14.70;59.00;;;;;;5032368;28;19917;-71
2021/05/02 08:02:26;;;;;;;;;;;14.60;58.80;;;;;;5032166;28;19967;-71
2021/05/02 08:04:52;;;;;;;;;;;14.60;59.10;;;;;;5032419;28;19996;-70
2021/05/02 08:07:18;;;;;;;;;;;14.70;58.80;;;;;;5032918;28;19996;-71
2021/05/02 08:09:44;;;;;;;;;;;14.60;58.80;;;;;;5033715;28;19909;-70
2021/05/02 08:12:10;;;;;;;;;;;14.60;58.70;;;;;;5033108;28;19959;-71
2021/05/02 08:14:36;;;;;;;;;;;14.60;59.10;;;;;;5033723;28;19920;-71
2021/05/02 08:17:02;;;;;;;;;;;14.60;59.10;;;;;;5032153;28;19913;-71
2021/05/02 08:19:28;;;;;;;;;;;14.60;58.80;;;;;;5032658;28;19913;-70
2021/05/02 08:21:54;;;;;;;;;;;14.50;58.90;;;;;;5033283;28;20024;-71
2021/05/02 08:24:21;;;;;;;;;;;14.40;59.20;;;;;;5031424;28;19917;-71
2021/05/02 08:26:47;;;;;;;;;;;14.20;59.50;;;;;;5032133;28;20282;-71
2021/05/02 08:29:13;;;;;;;;;;;14.20;59.80;;;;;;5019651;28;19913;-71
2021/05/02 08:31:39;;;;;;;;;;;14.40;59.60;;;;;;5027874;28;20003;-70
2021/05/02 08:34:05;;;;;;;;;;;14.30;59.60;;;;;;5031431;28;20389;-70
2021/05/02 08:36:31;;;;;;;;;;;14.40;59.30;;;;;;5031728;28;19971;-71
2021/05/02 08:38:58;;;;;;;;;;;14.30;59.20;;;;;;5031905;28;19913;-70
2021/05/02 08:41:25;;;;;;;;;;;14.30;59.40;;;;;;5032068;28;19914;-71
2021/05/02 08:43:52;;;;;;;;;;;14.20;59.70;;;;;;5033312;28;19921;-70
2021/05/02 08:46:18;;;;;;;;;;;14.20;60.30;;;;;;5032923;28;20254;-70
2021/05/02 08:48:44;;;;;;;;;;;14.30;59.50;;;;;;5034757;28;19913;-70
2021/05/02 08:51:10;;;;;;;;;;;14.20;59.30;;;;;;5035921;28;19968;-70
2021/05/02 08:53:36;;;;;;;;;;;14.20;59.40;;;;;;5037008;28;19913;-71
2021/05/02 08:56:04;;;;;;;;;;;14.20;59.40;;;;;;5037264;28;19913;-71
2021/05/02 08:58:30;;;;;;;;;;;14.10;59.40;;;;;;5036233;28;19923;-71
2021/05/02 09:00:56;;;;;;;;;;;14.00;59.40;;;;;;5036441;28;19917;-71
2021/05/02 09:03:43;;;;;;;;;;;14.00;59.50;;;;;;5037020;28;19978;-71
2021/05/02 09:06:15;;;;;;;;;;;14.00;59.40;;;;;;5025241;28;20016;-70
2021/05/02 09:08:41;;;;;;;;;;;14.00;59.50;;;;;;5034834;28;19999;-70
2021/05/02 09:11:07;;;;;;;;;;;14.00;59.60;;;;;;5030451;28;20077;-70
2021/05/02 09:13:33;;;;;;;;;;;14.00;59.60;;;;;;5035797;28;20347;-71
2021/05/02 09:16:04;;;;;;;;;;;14.10;59.40;;;;;;5018793;28;20240;-71
2021/05/02 09:18:37;;;;;;;;;;;14.20;59.40;;;;;;5036496;28;19913;-70
2021/05/02 09:21:04;;;;;;;;;;;14.20;59.90;;;;;;5034536;28;19913;-70
2021/05/02 09:23:37;;;;;;;;;;;14.20;60.00;;;;;;5036776;28;19913;-70
2021/05/02 09:26:04;;;;;;;;;;;14.00;59.90;;;;;;5017228;28;19917;-70
2021/05/02 09:28:39;;;;;;;;;;;14.10;60.30;;;;;;5043843;28;19924;-70
2021/05/02 09:31:06;;;;;;;;;;;14.00;59.90;;;;;;5029673;28;19960;-70
2021/05/02 09:33:32;;;;;;;;;;;14.10;60.50;;;;;;5036065;28;20250;-70
2021/05/02 09:35:58;;;;;;;;;;;14.00;60.40;;;;;;5035858;28;20223;-70
2021/05/02 09:38:25;;;;;;;;;;;14.10;60.70;;;;;;5036272;28;19920;-70
2021/05/02 09:40:52;;;;;;;;;;;13.90;60.40;;;;;;5035375;28;20045;-70
2021/05/02 09:43:41;;;;;;;;;;;13.90;60.90;;;;;;5036007;28;19917;-70
2021/05/02 09:46:27;;;;;;;;;;;14.00;61.10;;;;;;5030182;28;19929;-70
2021/05/02 09:48:57;;;;;;;;;;;14.00;60.30;;;;;;5035236;28;20359;-70
2021/05/02 09:51:25;;;;;;;;;;;14.00;60.80;;;;;;5035442;28;19979;-70
2021/05/02 09:54:05;;;;;;;;;;;13.90;61.00;;;;;;5034504;28;20251;-70
2021/05/02 09:56:35;;;;;;;;;;;13.90;60.70;;;;;;5034883;28;19912;-70
2021/05/02 09:59:02;;;;;;;;;;;13.90;61.10;;;;;;5035761;28;20004;-70
2021/05/02 10:01:28;;;;;;;;;;;13.80;60.40;;;;;;5015672;28;20307;-70
2021/05/02 10:03:55;;;;;;;;;;;13.80;60.50;;;;;;5033079;28;19913;-70
2021/05/02 10:06:31;;;;;;;;;;;13.70;61.00;;;;;;5034974;28;19912;-70
2021/05/02 10:08:59;;;;;;;;;;;13.70;60.90;;;;;;5033009;28;20008;-70
2021/05/02 10:11:25;;;;;;;;;;;13.70;60.90;;;;;;5034841;28;19960;-69
2021/05/02 10:13:51;;;;;;;;;;;13.60;61.30;;;;;;5034999;28;19913;-69
2021/05/02 10:16:17;;;;;;;;;;;13.60;61.40;;;;;;5035224;28;19960;-70
2021/05/02 10:18:44;;;;;;;;;;;13.70;60.80;;;;;;5034909;28;19971;-70
2021/05/02 10:21:10;;;;;;;;;;;13.60;61.20;;;;;;5034497;28;19913;-70
2021/05/02 10:23:36;;;;;;;;;;;13.50;61.60;;;;;;5035097;28;19931;-70
2021/05/02 10:26:05;;;;;;;;;;;13.50;61.40;;;;;;5035816;28;19917;-70
2021/05/02 10:28:32;;;;;;;;;;;13.60;61.20;;;;;;5034332;28;19959;-70
2021/05/02 10:31:00;;;;;;;;;;;13.50;61.40;;;;;;5035838;28;19913;-70
2021/05/02 10:33:30;;;;;;;;;;;13.60;61.10;;;;;;5033989;28;19996;-70
2021/05/02 10:36:00;;;;;;;;;;;13.70;61.00;;;;;;5034276;28;19959;-70
2021/05/02 10:38:44;;;;;;;;;;;13.70;61.10;;;;;;5033684;28;20270;-70
2021/05/02 10:41:20;;;;;;;;;;;13.60;61.10;;;;;;5016219;28;19924;-70
2021/05/02 10:43:46;;;;;;;;;;;13.60;61.10;;;;;;5030935;28;20000;-69
2021/05/02 10:46:32;;;;;;;;;;;13.60;60.90;;;;;;5027022;28;19960;-70
2021/05/02 10:48:58;;;;;;;;;;;13.60;61.10;;;;;;5007285;28;20020;-69
2021/05/02 10:51:25;;;;;;;;;;;13.60;60.90;;;;;;5036344;28;19917;-69
2021/05/02 10:54:00;;;;;;;;;;;13.70;61.10;;;;;;5036582;28;19913;-69
2021/05/02 10:56:46;;;;;;;;;;;13.70;60.80;;;;;;5006040;28;19920;-69
2021/05/02 10:59:13;;;;;;;;;;;13.70;60.90;;;;;;5034245;28;19928;-70
2021/05/02 11:01:39;;;;;;;;;;;13.70;60.90;;;;;;5016406;28;19921;-70
2021/05/02 11:04:06;;;;;;;;;;;13.50;61.70;;;;;;5015208;28;19925;-71
2021/05/02 11:06:38;;;;;;;;;;;13.70;61.20;;;;;;5035147;28;19928;-69
2021/05/02 11:09:11;;;;;;;;;;;13.80;61.20;;;;;;5035359;28;19920;-69
2021/05/02 11:11:42;;;;;;;;;;;13.60;61.10;;;;;;5027136;28;19913;-70
2021/05/02 11:14:09;;;;;;;;;;;13.70;61.20;;;;;;5035135;28;19913;-69
2021/05/02 11:16:38;;;;;;;;;;;13.60;61.10;;;;;;5032540;28;19952;-69
2021/05/02 11:19:06;;;;;;;;;;;13.70;61.20;;;;;;5033557;28;19974;-71
2021/05/02 11:21:47;;;;;;;;;;;13.70;61.10;;;;;;5033818;28;19924;-71
2021/05/02 11:24:17;;;;;;;;;;;13.60;61.10;;;;;;5033373;28;19920;-71
2021/05/02 11:26:55;;;;;;;;;;;13.60;61.80;;;;;;5033222;28;19928;-71
2021/05/02 11:29:22;;;;;;;;;;;13.80;61.80;;;;;;5026844;28;20342;-72
2021/05/02 11:31:49;;;;;;;;;;;13.80;61.90;;;;;;5034002;28;19913;-72
2021/05/02 11:34:15;;;;;;;;;;;13.80;61.80;;;;;;5034074;28;20377;-71
2021/05/02 11:36:42;;;;;;;;;;;13.70;61.90;;;;;;5033852;28;19917;-71
2021/05/02 11:39:28;;;;;;;;;;;13.70;61.60;;;;;;5032234;28;19960;-71
2021/05/02 11:42:07;;;;;;;;;;;13.60;61.80;;;;;;5025026;28;20000;-71
2021/05/02 11:44:34;;;;;;;;;;;13.80;62.90;;;;;;5033148;28;20034;-71
2021/05/02 11:47:07;;;;;;;;;;;13.80;61.80;;;;;;5033291;28;19913;-71
2021/05/02 11:49:36;;;;;;;;;;;14.00;62.60;;;;;;5033733;28;19978;-71
2021/05/02 11:52:03;;;;;;;;;;;13.80;62.00;;;;;;5033070;28;19913;-71
2021/05/02 11:54:30;;;;;;;;;;;13.80;62.40;;;;;;5031062;28;20266;-71
2021/05/02 11:56:57;;;;;;;;;;;13.80;62.00;;;;;;5028737;28;19920;-71
2021/05/02 11:59:23;;;;;;;;;;;13.80;62.80;;;;;;5034512;28;19952;-71
2021/05/02 12:01:49;;;;;;;;;;;13.80;62.10;;;;;;5033255;28;19917;-71
2021/05/02 12:04:19;;;;;;;;;;;13.70;62.60;;;;;;5033009;28;20413;-71
2021/05/02 12:06:46;;;;;;;;;;;13.80;62.70;;;;;;5033549;28;19921;-71
2021/05/02 12:09:16;;;;;;;;;;;13.70;62.20;;;;;;5033432;28;19914;-72
2021/05/02 12:11:43;;;;;;;;;;;13.70;62.60;;;;;;5033330;28;19990;-71
2021/05/02 12:14:16;;;;;;;;;;;13.60;62.50;;;;;;5030804;28;19913;-71
2021/05/02 12:16:44;;;;;;;;;;;13.50;63.00;;;;;;5032173;28;20358;-71
2021/05/02 12:19:10;;;;;;;;;;;13.50;62.60;;;;;;5033801;28;19913;-71
2021/05/02 12:21:37;;;;;;;;;;;13.50;62.50;;;;;;5032263;28;20058;-71
2021/05/02 12:24:10;;;;;;;;;;;13.40;62.90;;;;;;5032593;28;19925;-71
2021/05/02 12:26:38;;;;;;;;;;;13.40;62.70;;;;;;5016779;28;19925;-71
2021/05/02 12:29:07;;;;;;;;;;;13.40;62.50;;;;;;5035664;28;19960;-71
2021/05/02 12:31:35;;;;;;;;;;;13.40;62.40;;;;;;5037522;28;19955;-71
2021/05/02 12:34:01;;;;;;;;;;;13.30;62.80;;;;;;5036456;28;19913;-71
2021/05/02 12:36:28;;;;;;;;;;;13.30;63.20;;;;;;5037545;28;20365;-71
2021/05/02 12:39:01;;;;;;;;;;;13.30;63.30;;;;;;5036686;28;20259;-72
2021/05/02 12:41:30;;;;;;;;;;;13.10;64.30;;;;;;5037263;28;20287;-71
2021/05/02 12:44:09;;;;;;;;;;;13.20;63.10;;;;;;5037032;28;19913;-71
2021/05/02 12:46:39;;;;;;;;;;;13.20;62.70;;;;;;5037163;28;20354;-71
2021/05/02 12:49:13;;;;;;;;;;;13.20;62.60;;;;;;5037038;28;19913;-71
2021/05/02 12:51:39;;;;;;;;;;;13.40;62.60;;;;;;5034720;28;19989;-71
2021/05/02 12:54:09;;;;;;;;;;;13.40;62.40;;;;;;5037348;28;20315;-71
2021/05/02 12:56:36;;;;;;;;;;;13.40;62.30;;;;;;5039164;28;19913;-71
2021/05/02 12:59:02;;;;;;;;;;;13.30;62.10;;;;;;5038047;28;20284;-71
2021/05/02 13:01:29;;;;;;;;;;;13.30;62.20;;;;;;5037068;28;19920;-71
2021/05/02 13:03:57;;;;;;;;;;;13.40;62.40;;;;;;5036092;28;20006;-71
2021/05/02 13:06:25;;;;;;;;;;;13.40;62.30;;;;;;5036719;28;20011;-71
2021/05/02 13:08:52;;;;;;;;;;;13.40;62.30;;;;;;5036119;28;19913;-71
2021/05/02 13:11:40;;;;;;;;;;;13.40;62.10;;;;;;5037014;28;19917;-71
2021/05/02 13:14:16;;;;;;;;;;;13.40;62.20;;;;;;5028442;28;19996;-71
2021/05/02 13:16:43;;;;;;;;;;;13.40;62.60;;;;;;5033014;28;19952;-71
2021/05/02 13:19:21;;;;;;;;;;;13.50;62.60;;;;;;5035268;28;20339;-71
2021/05/02 13:21:47;;;;;;;;;;;13.50;62.90;;;;;;5039940;28;19913;-71
2021/05/02 13:24:13;;;;;;;;;;;13.40;63.00;;;;;;5036507;28;19913;-71
2021/05/02 13:26:40;;;;;;;;;;;13.40;62.70;;;;;;5047518;28;19914;-71
2021/05/02 13:29:10;;;;;;;;;;;13.40;63.10;;;;;;5036235;28;19913;-71
2021/05/02 13:31:47;;;;;;;;;;;13.40;62.80;;;;;;5036317;28;19913;-71
2021/05/02 13:34:16;;;;;;;;;;;13.30;63.00;;;;;;5036295;28;19917;-71
2021/05/02 13:36:44;;;;;;;;;;;13.20;63.20;;;;;;5036410;28;20247;-71
2021/05/02 13:39:11;;;;;;;;;;;13.30;63.80;;;;;;5035303;28;20008;-71
2021/05/02 13:41:37;;;;;;;;;;;13.30;63.30;;;;;;5034469;28;19913;-71
2021/05/02 13:44:11;;;;;;;;;;;13.30;63.40;;;;;;5035595;28;19944;-71
2021/05/02 13:46:37;;;;;;;;;;;13.30;64.10;;;;;;5031989;28;19925;-71
2021/05/02 13:49:03;;;;;;;;;;;13.50;63.30;;;;;;5030967;28;19913;-71
2021/05/02 13:51:29;;;;;;;;;;;13.50;63.60;;;;;;5033181;28;19913;-71
2021/05/02 13:53:56;;;;;;;;;;;13.40;63.60;;;;;;5034463;28;19913;-71
2021/05/02 13:56:25;;;;;;;;;;;13.50;63.50;;;;;;5035540;28;19932;-71
2021/05/02 13:58:54;;;;;;;;;;;13.50;63.40;;;;;;5034226;28;20259;-71
2021/05/02 14:01:21;;;;;;;;;;;13.60;63.70;;;;;;5032536;28;20001;-71
2021/05/02 14:03:51;;;;;;;;;;;13.60;63.40;;;;;;5030710;28;19913;-71
2021/05/02 14:06:17;;;;;;;;;;;13.80;64.00;;;;;;5032985;28;19928;-71
2021/05/02 14:08:43;;;;;;;;;;;13.80;63.60;;;;;;5033522;28;19917;-71
2021/05/02 14:11:09;;;;;;;;;;;13.70;64.10;;;;;;5035100;28;19921;-71
2021/05/02 14:13:35;;;;;;;;;;;13.80;64.20;;;;;;5034948;28;19975;-72
2021/05/02 14:16:02;;;;;;;;;;;13.90;63.90;;;;;;5035007;28;19944;-71
2021/05/02 14:18:28;;;;;;;;;;;14.00;63.80;;;;;;5027355;28;19917;-71
2021/05/02 14:20:54;;;;;;;;;;;14.00;63.90;;;;;;5032866;28;19913;-71